Time,TemperatureF,DewpointF,PressureIn,WindDirection,WindDirectionDegrees,WindSpeedMPH,WindSpeedGustMPH,Humidity,HourlyPrecipIn,Conditions,Clouds,dailyrainin,SoftwareType,DateUTC
2013-07-29 00:00:00,81.9,76.6,30.07,SE,143,1.0,3.0,84,0.00,,,0.00,Wunderground v.1.15,2013-07-29 04:00:00,
2013-07-29 00:10:00,82.0,76.3,30.08,SE,137,2.0,4.0,83,0.00,,,0.00,Wunderground v.1.15,2013-07-29 04:10:00,
2013-07-29 00:20:00,82.1,76.4,30.07,SSE,155,2.0,2.0,83,0.00,,,0.00,Wunderground v.1.15,2013-07-29 04:20:00,
2013-07-29 00:30:00,82.1,76.8,30.07,SE,146,2.0,2.0,84,0.00,,,0.00,Wunderground v.1.15,2013-07-29 04:30:00,
2013-07-29 00:40:00,82.1,76.8,30.06,SSE,163,2.0,3.0,84,0.00,,,0.00,Wunderground v.1.15,2013-07-29 04:40:00,
2013-07-29 00:50:00,82.2,76.5,30.07,ESE,122,3.0,3.0,83,0.00,,,0.00,Wunderground v.1.15,2013-07-29 04:50:00,
2013-07-29 01:00:00,82.1,76.8,30.06,SSE,152,2.0,2.0,84,0.00,,,0.00,Wunderground v.1.15,2013-07-29 05:00:00,
2013-07-29 01:10:00,82.1,76.8,30.06,SSE,160,2.0,2.0,84,0.00,,,0.00,Wunderground v.1.15,2013-07-29 05:10:00,
2013-07-29 01:20:00,82.1,77.1,30.06,SSE,158,3.0,3.0,85,0.00,,,0.00,Wunderground v.1.15,2013-07-29 05:20:00,
2013-07-29 01:30:00,82.3,77.3,30.06,East,82,3.0,5.0,85,0.00,,,0.00,Wunderground v.1.15,2013-07-29 05:30:00,
2013-07-29 01:40:00,82.3,77.3,30.06,SSE,152,2.0,2.0,85,0.00,,,0.00,Wunderground v.1.15,2013-07-29 05:40:00,
2013-07-29 01:50:00,82.1,76.8,30.05,SSE,158,3.0,3.0,84,0.00,,,0.00,Wunderground v.1.15,2013-07-29 05:50:00,
2013-07-29 02:00:00,82.1,76.8,30.05,SSE,165,2.0,3.0,84,0.00,,,0.00,Wunderground v.1.15,2013-07-29 06:00:00,
2013-07-29 02:10:00,82.0,76.7,30.05,SSW,193,3.0,3.0,84,0.00,,,0.00,Wunderground v.1.15,2013-07-29 06:10:00,
2013-07-29 02:20:00,82.0,76.7,30.05,SE,146,2.0,2.0,84,0.00,,,0.00,Wunderground v.1.15,2013-07-29 06:20:00,
2013-07-29 02:30:00,82.0,76.7,30.05,ESE,118,1.0,1.0,84,0.00,,,0.00,Wunderground v.1.15,2013-07-29 06:30:00,
2013-07-29 02:40:00,81.7,76.7,30.05,SSE,162,1.0,1.0,85,0.00,,,0.00,Wunderground v.1.15,2013-07-29 06:40:00,
2013-07-29 02:50:00,81.5,76.6,30.05,ESE,113,2.0,2.0,85,0.00,,,0.00,Wunderground v.1.15,2013-07-29 06:50:00,
2013-07-29 03:00:00,81.5,76.6,30.05,SSE,150,2.0,2.0,85,0.00,,,0.00,Wunderground v.1.15,2013-07-29 07:00:00,
2013-07-29 03:10:00,81.4,76.5,30.04,SE,141,1.0,1.0,85,0.00,,,0.00,Wunderground v.1.15,2013-07-29 07:10:00,
2013-07-29 03:20:00,81.1,76.2,30.04,SSE,150,0.0,0.0,85,0.00,,,0.00,Wunderground v.1.15,2013-07-29 07:20:00,
2013-07-29 03:30:00,80.8,76.2,30.05,SSE,149,0.0,0.0,86,0.00,,,0.00,Wunderground v.1.15,2013-07-29 07:30:00,
2013-07-29 03:40:00,80.5,76.3,30.04,West,259,0.0,0.0,87,0.00,,,0.00,Wunderground v.1.15,2013-07-29 07:40:00,
2013-07-29 03:50:00,80.2,76.3,30.05,West,281,0.0,6.0,88,0.00,,,0.00,Wunderground v.1.15,2013-07-29 07:50:00,
2013-07-29 04:00:00,78.8,74.9,30.04,North,356,1.0,1.0,88,0.00,,,0.00,Wunderground v.1.15,2013-07-29 08:00:00,
2013-07-29 04:10:00,78.6,75.1,30.04,North,354,1.0,1.0,89,0.00,,,0.00,Wunderground v.1.15,2013-07-29 08:10:00,
2013-07-29 04:20:00,78.1,74.6,30.04,NNW,340,0.0,0.0,89,0.00,,,0.00,Wunderground v.1.15,2013-07-29 08:20:00,
2013-07-29 04:30:00,77.9,74.7,30.04,NNW,340,0.0,0.0,90,0.00,,,0.00,Wunderground v.1.15,2013-07-29 08:30:00,
2013-07-29 04:40:00,77.8,74.6,30.04,NNW,340,0.0,0.0,90,0.00,,,0.00,Wunderground v.1.15,2013-07-29 08:40:00,
2013-07-29 04:50:00,77.5,74.7,30.03,NNW,342,0.0,0.0,91,0.00,,,0.00,Wunderground v.1.15,2013-07-29 08:50:00,
2013-07-29 05:00:00,77.4,74.6,30.03,NNW,342,0.0,0.0,91,0.00,,,0.00,Wunderground v.1.15,2013-07-29 09:00:00,
2013-07-29 05:10:00,77.2,74.7,30.04,NNW,340,0.0,0.0,92,0.00,,,0.00,Wunderground v.1.15,2013-07-29 09:10:00,
2013-07-29 05:20:00,77.1,74.9,30.04,NNW,338,0.0,0.0,93,0.00,,,0.00,Wunderground v.1.15,2013-07-29 09:20:00,
2013-07-29 05:30:00,76.8,74.6,30.05,NNW,338,0.0,0.0,93,0.00,,,0.00,Wunderground v.1.15,2013-07-29 09:30:00,
2013-07-29 05:40:00,76.5,74.3,30.05,NNW,338,0.0,0.0,93,0.00,,,0.00,Wunderground v.1.15,2013-07-29 09:40:00,
2013-07-29 05:50:00,76.2,74.3,30.05,NNW,338,0.0,0.0,94,0.00,,,0.00,Wunderground v.1.15,2013-07-29 09:50:00,
2013-07-29 06:00:00,76.0,74.1,30.05,NNW,340,0.0,0.0,94,0.00,,,0.00,Wunderground v.1.15,2013-07-29 10:00:00,
2013-07-29 06:10:00,75.9,74.0,30.06,NNW,339,0.0,0.0,94,0.00,,,0.00,Wunderground v.1.15,2013-07-29 10:10:00,
2013-07-29 06:20:00,76.0,74.1,30.07,SE,146,2.0,2.0,94,0.55,,,0.03,Wunderground v.1.15,2013-07-29 10:20:00,
2013-07-29 06:50:00,76.5,73.0,30.06,NNE,18,0.0,0.0,89,0.10,,,0.18,Wunderground v.1.15,2013-07-29 10:50:00,
2013-07-29 07:00:00,76.2,73.4,30.07,NNE,18,0.0,0.0,91,0.04,,,0.18,Wunderground v.1.15,2013-07-29 11:00:00,
2013-07-29 07:20:00,76.0,73.8,30.08,South,188,1.0,1.0,93,0.00,,,0.18,Wunderground v.1.15,2013-07-29 11:20:00,
2013-07-29 07:30:00,76.5,74.3,30.08,SSE,149,1.0,1.0,93,0.00,,,0.18,Wunderground v.1.15,2013-07-29 11:30:00,
2013-07-29 07:40:00,76.7,74.5,30.09,NE,49,0.0,0.0,93,0.00,,,0.18,Wunderground v.1.15,2013-07-29 11:40:00,
2013-07-29 07:50:00,76.7,74.5,30.09,ENE,58,0.0,2.0,93,0.00,,,0.18,Wunderground v.1.15,2013-07-29 11:50:00,
2013-07-29 08:00:00,76.8,74.6,30.09,NE,41,2.0,2.0,93,0.00,,,0.18,Wunderground v.1.15,2013-07-29 12:00:00,
2013-07-29 08:10:00,77.1,75.2,30.10,East,90,2.0,2.0,94,0.00,,,0.18,Wunderground v.1.15,2013-07-29 12:10:00,
2013-07-29 08:20:00,77.6,75.4,30.10,ENE,59,2.0,4.0,93,0.00,,,0.18,Wunderground v.1.15,2013-07-29 12:20:00,
2013-07-29 08:30:00,78.0,75.5,30.10,ENE,57,3.0,3.0,92,0.00,,,0.18,Wunderground v.1.15,2013-07-29 12:30:00,
2013-07-29 08:40:00,78.0,75.5,30.10,ENE,78,3.0,3.0,92,0.00,,,0.18,Wunderground v.1.15,2013-07-29 12:40:00,
2013-07-29 08:50:00,78.4,75.6,30.10,ENE,60,1.0,1.0,91,0.00,,,0.18,Wunderground v.1.15,2013-07-29 12:50:00,
2013-07-29 09:00:00,78.6,76.1,30.10,ENE,78,1.0,1.0,92,0.00,,,0.18,Wunderground v.1.15,2013-07-29 13:00:00,
2013-07-29 09:30:00,79.8,77.3,30.11,East,82,0.0,0.0,92,0.00,,,0.18,Wunderground v.1.15,2013-07-29 13:30:00,
2013-07-29 09:40:00,80.4,77.9,30.11,ENE,76,0.0,0.0,92,0.00,,,0.18,Wunderground v.1.15,2013-07-29 13:40:00,
2013-07-29 09:50:00,81.1,77.9,30.11,ENE,69,1.0,2.0,90,0.00,,,0.18,Wunderground v.1.15,2013-07-29 13:50:00,
2013-07-29 10:10:00,82.8,78.2,30.12,ENE,75,1.0,2.0,86,0.00,,,0.18,Wunderground v.1.15,2013-07-29 14:10:00,
2013-07-29 10:20:00,83.8,78.1,30.12,ESE,104,1.0,2.0,83,0.00,,,0.18,Wunderground v.1.15,2013-07-29 14:20:00,
2013-07-29 10:30:00,84.6,78.5,30.12,NE,51,2.0,3.0,82,0.00,,,0.18,Wunderground v.1.15,2013-07-29 14:30:00,
2013-07-29 10:40:00,85.2,78.7,30.12,SE,129,3.0,3.0,81,0.00,,,0.18,Wunderground v.1.15,2013-07-29 14:40:00,
2013-07-29 10:50:00,85.7,78.8,30.12,ENE,67,2.0,2.0,80,0.00,,,0.18,Wunderground v.1.15,2013-07-29 14:50:00,
2013-07-29 11:00:00,86.2,78.5,30.12,East,96,2.0,2.0,78,0.00,,,0.18,Wunderground v.1.15,2013-07-29 15:00:00,
2013-07-29 11:10:00,85.8,78.1,30.12,ENE,63,4.0,4.0,78,0.00,,,0.18,Wunderground v.1.15,2013-07-29 15:10:00,
2013-07-29 11:20:00,86.0,77.9,30.12,ESE,121,3.0,4.0,77,0.00,,,0.18,Wunderground v.1.15,2013-07-29 15:20:00,
2013-07-29 11:30:00,87.1,77.8,30.13,East,99,3.0,4.0,74,0.00,,,0.18,Wunderground v.1.15,2013-07-29 15:30:00,
2013-07-29 11:40:00,86.8,77.9,30.13,East,82,4.0,4.0,75,0.00,,,0.18,Wunderground v.1.15,2013-07-29 15:40:00,
2013-07-29 11:50:00,87.0,78.5,30.13,East,81,4.0,4.0,76,0.00,,,0.18,Wunderground v.1.15,2013-07-29 15:50:00,
2013-07-29 12:00:00,86.5,78.0,30.13,SE,146,5.0,5.0,76,0.00,,,0.18,Wunderground v.1.15,2013-07-29 16:00:00,
2013-07-29 12:30:00,87.0,78.9,30.13,ENE,68,5.0,7.0,77,0.00,,,0.18,Wunderground v.1.15,2013-07-29 16:30:00,
2013-07-29 12:50:00,86.7,79.0,30.13,ENE,68,6.0,6.0,78,0.00,,,0.18,Wunderground v.1.15,2013-07-29 16:50:00,
2013-07-29 13:10:00,86.8,77.9,30.13,East,81,6.0,6.0,75,0.00,,,0.18,Wunderground v.1.15,2013-07-29 17:10:00,
2013-07-29 13:20:00,86.9,78.4,30.13,ESE,118,5.0,7.0,76,0.00,,,0.18,Wunderground v.1.15,2013-07-29 17:20:00,
2013-07-29 13:30:00,86.5,78.4,30.13,NNE,32,6.0,6.0,77,0.00,,,0.18,Wunderground v.1.15,2013-07-29 17:30:00,
2013-07-29 13:40:00,87.1,78.6,30.13,East,81,5.0,8.0,76,0.00,,,0.18,Wunderground v.1.15,2013-07-29 17:40:00,
2013-07-29 13:50:00,87.1,79.4,30.12,ESE,108,6.0,6.0,78,0.00,,,0.18,Wunderground v.1.15,2013-07-29 17:50:00,
2013-07-29 14:00:00,87.0,78.1,30.13,East,85,7.0,10.0,75,0.00,,,0.18,Wunderground v.1.15,2013-07-29 18:00:00,
2013-07-29 14:10:00,87.6,79.1,30.13,ESE,121,6.0,6.0,76,0.00,,,0.18,Wunderground v.1.15,2013-07-29 18:10:00,
2013-07-29 14:20:00,87.0,78.5,30.12,East,90,8.0,9.0,76,0.00,,,0.18,Wunderground v.1.15,2013-07-29 18:20:00,
2013-07-29 14:30:00,87.5,79.0,30.12,East,82,6.0,6.0,76,0.00,,,0.18,Wunderground v.1.15,2013-07-29 18:30:00,
2013-07-29 14:50:00,87.4,78.1,30.11,East,94,6.0,9.0,74,0.00,,,0.18,Wunderground v.1.15,2013-07-29 18:50:00,
2013-07-29 15:00:00,87.4,78.1,30.10,ENE,68,6.0,9.0,74,0.00,,,0.18,Wunderground v.1.15,2013-07-29 19:00:00,
2013-07-29 15:10:00,88.0,77.8,30.10,East,94,5.0,5.0,72,0.00,,,0.18,Wunderground v.1.15,2013-07-29 19:10:00,
2013-07-29 15:30:00,87.0,78.5,30.10,East,94,6.0,6.0,76,0.00,,,0.18,Wunderground v.1.15,2013-07-29 19:30:00,
2013-07-29 15:40:00,87.1,79.4,30.10,ENE,68,5.0,11.0,78,0.00,,,0.18,Wunderground v.1.15,2013-07-29 19:40:00,
2013-07-29 15:50:00,85.2,78.3,30.10,East,96,8.0,8.0,80,0.00,,,0.18,Wunderground v.1.15,2013-07-29 19:50:00,
2013-07-29 16:00:00,84.4,77.6,30.09,East,90,8.0,8.0,80,0.00,,,0.18,Wunderground v.1.15,2013-07-29 20:00:00,
2013-07-29 16:10:00,85.2,78.3,30.10,SE,137,7.0,7.0,80,0.00,,,0.18,Wunderground v.1.15,2013-07-29 20:10:00,
2013-07-29 16:20:00,85.2,77.9,30.11,ENE,62,6.0,6.0,79,0.00,,,0.18,Wunderground v.1.15,2013-07-29 20:20:00,
2013-07-29 16:40:00,84.7,77.5,30.10,SE,124,7.0,7.0,79,0.00,,,0.18,Wunderground v.1.15,2013-07-29 20:40:00,
2013-07-29 16:50:00,84.9,77.3,30.11,ESE,113,5.0,5.0,78,0.00,,,0.18,Wunderground v.1.15,2013-07-29 20:50:00,
2013-07-29 17:00:00,84.9,76.5,30.11,East,89,4.0,4.0,76,0.00,,,0.18,Wunderground v.1.15,2013-07-29 21:00:00,
2013-07-29 17:20:00,85.0,76.2,30.10,East,79,5.0,7.0,75,0.00,,,0.18,Wunderground v.1.15,2013-07-29 21:20:00,
2013-07-29 17:50:00,84.1,75.7,30.10,ESE,122,4.0,4.0,76,0.00,,,0.18,Wunderground v.1.15,2013-07-29 21:50:00,
2013-07-29 18:00:00,83.9,75.5,30.09,ENE,75,4.0,4.0,76,0.00,,,0.18,Wunderground v.1.15,2013-07-29 22:00:00,
2013-07-29 18:10:00,83.9,75.5,30.09,ENE,75,4.0,4.0,76,0.00,,,0.18,Wunderground v.1.15,2013-07-29 22:10:00,
2013-07-29 18:20:00,84.1,75.3,30.09,East,89,3.0,4.0,75,0.00,,,0.18,Wunderground v.1.15,2013-07-29 22:20:00,
2013-07-29 18:30:00,84.3,75.9,30.09,ENE,77,3.0,4.0,76,0.00,,,0.18,Wunderground v.1.15,2013-07-29 22:30:00,
2013-07-29 18:40:00,84.0,76.0,30.09,NE,51,4.0,7.0,77,0.00,,,0.18,Wunderground v.1.15,2013-07-29 22:40:00,
2013-07-29 19:00:00,83.2,77.1,30.10,ESE,103,5.0,5.0,82,0.00,,,0.18,Wunderground v.1.15,2013-07-29 23:00:00,
2013-07-29 19:10:00,83.1,76.7,30.10,ESE,108,4.0,5.0,81,0.00,,,0.18,Wunderground v.1.15,2013-07-29 23:10:00,
2013-07-29 19:20:00,83.1,77.0,30.10,ENE,77,3.0,5.0,82,0.00,,,0.18,Wunderground v.1.15,2013-07-29 23:20:00,
2013-07-29 19:30:00,82.9,76.5,30.10,East,81,4.0,7.0,81,0.00,,,0.18,Wunderground v.1.15,2013-07-29 23:30:00,
2013-07-29 19:40:00,83.0,76.6,30.11,East,85,4.0,5.0,81,0.00,,,0.18,Wunderground v.1.15,2013-07-29 23:40:00,
2013-07-29 19:50:00,82.8,76.7,30.11,East,97,4.0,4.0,82,0.00,,,0.18,Wunderground v.1.15,2013-07-29 23:50:00,
2013-07-29 20:00:00,82.8,76.7,30.12,East,88,3.0,4.0,82,0.00,,,0.18,Wunderground v.1.15,2013-07-30 00:00:00,
2013-07-29 20:20:00,82.7,77.0,30.12,East,101,2.0,2.0,83,0.00,,,0.18,Wunderground v.1.15,2013-07-30 00:20:00,
2013-07-29 20:30:00,82.6,76.9,30.13,SE,131,3.0,3.0,83,0.00,,,0.18,Wunderground v.1.15,2013-07-30 00:30:00,
2013-07-29 20:40:00,82.6,76.9,30.13,SE,129,3.0,3.0,83,0.00,,,0.18,Wunderground v.1.15,2013-07-30 00:40:00,
2013-07-29 20:50:00,82.5,77.2,30.13,ESE,107,4.0,4.0,84,0.00,,,0.18,Wunderground v.1.15,2013-07-30 00:50:00,
2013-07-29 21:00:00,82.5,77.2,30.13,ESE,103,4.0,4.0,84,0.00,,,0.18,Wunderground v.1.15,2013-07-30 01:00:00,
2013-07-29 21:20:00,82.5,77.2,30.14,East,81,4.0,4.0,84,0.00,,,0.18,Wunderground v.1.15,2013-07-30 01:20:00,
2013-07-29 21:40:00,82.4,77.4,30.15,ESE,105,2.0,2.0,85,0.00,,,0.18,Wunderground v.1.15,2013-07-30 01:40:00,
2013-07-29 21:50:00,82.3,77.7,30.15,SE,135,2.0,2.0,86,0.00,,,0.18,Wunderground v.1.15,2013-07-30 01:50:00,
2013-07-29 22:00:00,82.3,77.7,30.15,ESE,111,2.0,3.0,86,0.00,,,0.18,Wunderground v.1.15,2013-07-30 02:00:00,
2013-07-29 22:10:00,82.3,77.7,30.15,ESE,103,2.0,2.0,86,0.00,,,0.18,Wunderground v.1.15,2013-07-30 02:10:00,
2013-07-29 22:20:00,82.3,77.7,30.15,ESE,102,2.0,3.0,86,0.00,,,0.18,Wunderground v.1.15,2013-07-30 02:20:00,
2013-07-29 22:30:00,82.3,78.0,30.15,ENE,77,3.0,3.0,87,0.00,,,0.18,Wunderground v.1.15,2013-07-30 02:30:00,
2013-07-29 22:40:00,82.2,77.9,30.15,ESE,111,2.0,3.0,87,0.00,,,0.18,Wunderground v.1.15,2013-07-30 02:40:00,
2013-07-29 22:50:00,82.1,77.8,30.15,ESE,105,3.0,3.0,87,0.00,,,0.18,Wunderground v.1.15,2013-07-30 02:50:00,
2013-07-29 23:00:00,82.2,77.9,30.15,ESE,106,3.0,3.0,87,0.00,,,0.18,Wunderground v.1.15,2013-07-30 03:00:00,
2013-07-29 23:10:00,82.3,78.0,30.15,ENE,70,3.0,3.0,87,0.00,,,0.18,Wunderground v.1.15,2013-07-30 03:10:00,
2013-07-29 23:20:00,82.1,77.5,30.15,ENE,65,2.0,2.0,86,0.00,,,0.18,Wunderground v.1.15,2013-07-30 03:20:00,
2013-07-29 23:30:00,82.3,77.3,30.15,ENE,77,4.0,6.0,85,0.00,,,0.18,Wunderground v.1.15,2013-07-30 03:30:00,
2013-07-29 23:40:00,82.4,77.4,30.15,ENE,63,4.0,4.0,85,0.00,,,0.18,Wunderground v.1.15,2013-07-30 03:40:00,
2013-07-29 23:50:00,82.4,77.8,30.15,East,99,2.0,5.0,86,0.00,,,0.18,Wunderground v.1.15,2013-07-30 03:50:00,